Time;durP1;ratioP1;P1;durP2;ratioP2;P2;SDS_P1;SDS_P2;PMS_P1;PMS_P2;Temp;Humidity;BMP_temperature;BMP_pressure;BME280_temperature;BME280_humidity;BME280_pressure;Samples;Min_cycle;Max_cycle;Signal;HPM_P1;HPM_P2
2024/03/11 00:01:15;;;;;;;29.23;22.13;;;11.90;99.90;;;;;;4934263;29;20784;-61
2024/03/11 00:03:40;;;;;;;32.80;24.30;;;12.00;99.90;;;;;;4942842;29;20430;-61
2024/03/11 00:06:07;;;;;;;27.97;22.53;;;12.00;99.90;;;;;;4936514;29;20413;-61
2024/03/11 00:08:34;;;;;;;33.40;25.37;;;12.10;99.90;;;;;;4936552;29;20233;-61
2024/03/11 00:11:00;;;;;;;33.60;23.80;;;12.10;99.90;;;;;;4937057;29;20417;-61
2024/03/11 00:13:34;;;;;;;32.13;24.07;;;12.10;99.90;;;;;;4936290;29;20811;-61
2024/03/11 00:16:01;;;;;;;34.27;24.77;;;12.10;99.90;;;;;;4936987;29;20403;-61
2024/03/11 00:18:28;;;;;;;32.07;24.40;;;12.10;99.90;;;;;;4936052;29;20783;-61
2024/03/11 00:20:55;;;;;;;31.13;24.60;;;12.10;99.90;;;;;;4936844;29;20409;-61
2024/03/11 00:23:21;;;;;;;32.13;23.97;;;12.10;99.90;;;;;;4936186;29;20417;-61
2024/03/11 00:25:47;;;;;;;31.37;23.73;;;12.10;99.90;;;;;;4936207;29;20414;-61
2024/03/11 00:28:13;;;;;;;29.57;23.33;;;12.10;99.90;;;;;;4936065;29;20275;-61
2024/03/11 00:30:39;;;;;;;31.70;24.23;;;12.10;99.90;;;;;;4940207;29;20211;-61
2024/03/11 00:33:09;;;;;;;31.83;23.33;;;12.10;99.90;;;;;;4934730;29;20468;-61
2024/03/11 00:35:35;;;;;;;33.97;24.90;;;12.00;99.90;;;;;;4936566;29;20417;-61
2024/03/11 00:38:02;;;;;;;35.50;23.60;;;12.00;99.90;;;;;;4936451;29;20756;-61
2024/03/11 00:40:29;;;;;;;31.27;23.10;;;12.00;99.90;;;;;;4935841;29;20414;-61
2024/03/11 00:42:55;;;;;;;30.50;24.03;;;12.00;99.90;;;;;;4936346;29;20417;-61
2024/03/11 00:45:23;;;;;;;30.97;23.10;;;12.00;99.90;;;;;;4935159;29;20565;-61
2024/03/11 00:47:49;;;;;;;32.53;23.47;;;12.00;99.90;;;;;;4936440;29;20481;-61
2024/03/11 00:50:15;;;;;;;30.20;23.10;;;12.00;99.90;;;;;;4935705;29;20407;-61
2024/03/11 00:52:41;;;;;;;32.93;24.40;;;12.00;99.90;;;;;;4940863;29;20845;-61
2024/03/11 00:55:09;;;;;;;30.50;22.83;;;12.00;99.90;;;;;;4955129;29;20510;-61
2024/03/11 00:57:36;;;;;;;33.40;25.17;;;12.00;99.90;;;;;;4949805;29;20525;-61
2024/03/11 01:00:08;;;;;;;35.43;26.33;;;12.00;99.90;;;;;;4932532;29;20448;-61
2024/03/11 01:02:34;;;;;;;33.37;25.60;;;11.90;99.90;;;;;;4955089;29;20399;-61
2024/03/11 01:05:00;;;;;;;32.30;25.03;;;12.00;99.90;;;;;;4948176;29;20413;-61
2024/03/11 01:07:26;;;;;;;35.07;24.47;;;12.00;99.90;;;;;;4935388;29;20424;-61
2024/03/11 01:09:53;;;;;;;32.00;23.50;;;11.90;99.90;;;;;;4935928;29;20409;-61
2024/03/11 01:12:22;;;;;;;34.13;24.03;;;11.90;99.90;;;;;;4932334;29;20445;-61
2024/03/11 01:14:48;;;;;;;33.47;24.73;;;12.00;99.90;;;;;;4935893;29;20455;-61
2024/03/11 01:17:13;;;;;;;33.37;24.73;;;12.00;99.90;;;;;;4935254;29;20426;-61
2024/03/11 01:19:39;;;;;;;32.10;24.17;;;11.90;99.90;;;;;;4935771;29;20404;-61
2024/03/11 01:22:05;;;;;;;32.30;25.03;;;11.90;99.90;;;;;;4931457;29;20229;-61
2024/03/11 01:24:31;;;;;;;30.07;23.03;;;11.90;99.90;;;;;;4935045;29;20261;-61
2024/03/11 01:26:57;;;;;;;33.80;25.37;;;11.90;99.90;;;;;;4935344;29;20288;-61
2024/03/11 01:29:24;;;;;;;30.40;23.13;;;11.90;99.90;;;;;;4939210;29;20225;-61
2024/03/11 01:31:50;;;;;;;34.90;25.00;;;11.90;99.90;;;;;;4954744;29;20570;-61
2024/03/11 01:34:16;;;;;;;34.20;24.63;;;11.90;99.90;;;;;;4953848;29;20888;-61
2024/03/11 01:36:42;;;;;;;34.27;25.77;;;11.80;99.90;;;;;;4954693;29;20183;-61
2024/03/11 01:39:09;;;;;;;32.17;24.10;;;11.90;99.90;;;;;;4937265;29;20898;-61
2024/03/11 01:41:38;;;;;;;31.00;24.50;;;11.90;99.90;;;;;;4954262;29;20492;-61
2024/03/11 01:44:07;;;;;;;34.23;25.77;;;11.90;99.90;;;;;;4937534;29;20452;-61
2024/03/11 01:46:34;;;;;;;34.50;25.40;;;11.90;99.90;;;;;;4925603;29;20491;-61
2024/03/11 01:49:06;;;;;;;36.17;26.00;;;11.90;99.90;;;;;;4934956;29;20425;-61
2024/03/11 01:51:33;;;;;;;35.13;26.90;;;11.80;99.90;;;;;;4934495;29;20422;-61
2024/03/11 01:53:59;;;;;;;37.27;26.00;;;11.90;99.90;;;;;;4934984;29;20950;-61
2024/03/11 01:56:28;;;;;;;37.47;26.17;;;11.80;99.90;;;;;;4934944;29;20425;-61
2024/03/11 01:58:57;;;;;;;34.83;26.20;;;11.90;99.90;;;;;;4937175;29;20432;-61
2024/03/11 02:01:24;;;;;;;35.20;25.60;;;11.80;99.90;;;;;;4953558;29;20406;-61
2024/03/11 02:03:50;;;;;;;37.87;26.53;;;11.80;99.90;;;;;;4954458;29;20412;-61
2024/03/11 02:06:17;;;;;;;35.97;26.70;;;11.90;99.90;;;;;;4953806;29;20416;-61
2024/03/11 02:08:43;;;;;;;37.67;26.57;;;11.90;99.90;;;;;;4954328;29;20831;-61
2024/03/11 02:11:10;;;;;;;35.53;26.40;;;11.80;99.90;;;;;;4942503;29;20452;-61
2024/03/11 02:13:36;;;;;;;37.17;27.33;;;11.90;99.90;;;;;;4934280;29;20466;-61
2024/03/11 02:16:02;;;;;;;39.83;28.63;;;11.80;99.90;;;;;;4962396;28;20429;-61
2024/03/11 02:18:28;;;;;;;35.27;26.97;;;11.80;99.90;;;;;;4934612;29;20220;-61
2024/03/11 02:20:54;;;;;;;39.37;27.00;;;11.80;99.90;;;;;;4935163;29;20481;-61
2024/03/11 02:23:20;;;;;;;36.60;26.33;;;11.80;99.90;;;;;;4934252;29;20424;-61
2024/03/11 02:25:46;;;;;;;34.57;26.53;;;11.80;99.90;;;;;;4935211;29;20211;-61
2024/03/11 02:28:12;;;;;;;38.03;27.37;;;11.80;99.90;;;;;;4934647;29;20829;-61
2024/03/11 02:30:38;;;;;;;34.67;26.53;;;11.70;99.90;;;;;;4948363;29;20521;-61
2024/03/11 02:33:05;;;;;;;38.93;26.90;;;11.60;99.90;;;;;;4945295;29;20490;-61
2024/03/11 02:35:31;;;;;;;37.43;26.30;;;11.70;99.90;;;;;;4936375;29;20521;-61
2024/03/11 02:37:57;;;;;;;40.67;29.20;;;11.60;99.90;;;;;;4947074;29;20426;-61
2024/03/11 02:40:26;;;;;;;39.43;27.43;;;11.70;99.90;;;;;;4934336;29;20412;-61
2024/03/11 02:42:56;;;;;;;39.07;27.00;;;11.70;99.90;;;;;;4934874;29;20422;-61
2024/03/11 02:45:25;;;;;;;38.00;28.17;;;11.70;99.90;;;;;;4934418;29;20390;-61
2024/03/11 02:47:51;;;;;;;40.77;27.57;;;11.60;99.90;;;;;;4938876;29;20425;-61
2024/03/11 02:50:17;;;;;;;37.10;26.43;;;11.60;99.90;;;;;;4935312;29;20421;-61
2024/03/11 02:52:43;;;;;;;36.63;26.53;;;11.60;99.90;;;;;;4917677;29;20503;-61
2024/03/11 02:55:14;;;;;;;40.53;28.57;;;11.60;99.90;;;;;;4934693;29;20689;-61
2024/03/11 02:57:43;;;;;;;33.80;26.10;;;11.60;99.90;;;;;;4936742;29;20461;-61
2024/03/11 03:00:10;;;;;;;36.40;25.90;;;11.70;99.90;;;;;;4950356;29;20446;-61
2024/03/11 03:02:40;;;;;;;37.07;27.50;;;11.70;99.90;;;;;;4918927;29;20432;-61
2024/03/11 03:05:06;;;;;;;38.30;26.23;;;11.70;99.90;;;;;;4923375;29;20487;-61
2024/03/11 03:07:33;;;;;;;38.47;26.37;;;11.70;99.90;;;;;;4937116;29;20418;-61
2024/03/11 03:09:59;;;;;;;36.17;26.10;;;11.70;99.90;;;;;;4938200;29;20419;-61
2024/03/11 03:12:24;;;;;;;39.30;28.40;;;11.70;99.90;;;;;;4937473;29;20534;-61
2024/03/11 03:14:50;;;;;;;37.40;27.93;;;11.70;99.90;;;;;;4938042;29;20184;-60
2024/03/11 03:17:16;;;;;;;35.07;26.63;;;11.70;99.90;;;;;;4952298;29;20190;-61
2024/03/11 03:19:41;;;;;;;38.50;25.60;;;11.70;99.90;;;;;;4937927;29;20186;-61
2024/03/11 03:22:07;;;;;;;40.07;28.77;;;11.70;99.90;;;;;;4937659;29;20181;-61
2024/03/11 03:24:33;;;;;;;35.80;26.20;;;11.70;99.90;;;;;;4923172;29;20533;-62
2024/03/11 03:26:59;;;;;;;38.53;27.53;;;11.70;99.90;;;;;;4933488;29;20430;-62
2024/03/11 03:29:26;;;;;;;36.93;27.03;;;11.70;99.90;;;;;;4945617;29;20518;-62
2024/03/11 03:31:52;;;;;;;35.40;25.80;;;11.80;99.90;;;;;;4942570;29;20264;-63
2024/03/11 03:34:17;;;;;;;35.53;26.97;;;11.80;99.90;;;;;;4937156;29;20503;-62
2024/03/11 03:36:43;;;;;;;36.30;26.27;;;11.80;99.90;;;;;;4937168;29;20189;-62
2024/03/11 03:39:10;;;;;;;37.30;26.57;;;11.80;99.90;;;;;;4937388;29;20201;-63
2024/03/11 03:41:36;;;;;;;36.43;25.70;;;11.80;99.90;;;;;;4936955;29;20172;-62
2024/03/11 03:44:05;;;;;;;36.70;25.67;;;11.80;99.90;;;;;;4937530;29;20405;-63
2024/03/11 03:46:31;;;;;;;38.73;27.43;;;11.80;99.90;;;;;;4936886;29;20446;-62
2024/03/11 03:48:58;;;;;;;34.40;25.93;;;11.80;99.90;;;;;;4937577;29;20436;-63
2024/03/11 03:51:24;;;;;;;36.70;26.50;;;11.80;99.90;;;;;;4936647;29;20257;-62
2024/03/11 03:53:50;;;;;;;37.37;27.40;;;11.80;99.90;;;;;;4936867;29;20510;-63
2024/03/11 03:56:16;;;;;;;39.00;27.90;;;11.80;99.90;;;;;;4936887;29;20407;-63
2024/03/11 03:58:42;;;;;;;32.20;25.23;;;11.80;99.90;;;;;;4929393;29;20785;-63
2024/03/11 04:01:08;;;;;;;38.40;26.10;;;11.80;99.90;;;;;;4955025;29;20470;-63
2024/03/11 04:03:34;;;;;;;36.13;25.83;;;11.70;99.90;;;;;;4955206;29;20412;-62
2024/03/11 04:06:00;;;;;;;39.90;27.60;;;11.70;99.90;;;;;;4956363;29;20420;-63
2024/03/11 04:08:26;;;;;;;37.30;26.23;;;11.70;99.90;;;;;;4951893;28;20428;-62
2024/03/11 04:10:52;;;;;;;36.97;26.13;;;11.60;99.90;;;;;;4936667;29;20422;-62
2024/03/11 04:13:18;;;;;;;34.93;25.07;;;11.60;99.90;;;;;;4942713;29;20217;-62
2024/03/11 04:15:44;;;;;;;39.63;27.17;;;11.60;99.90;;;;;;4937571;29;20192;-63
2024/03/11 04:18:12;;;;;;;40.07;27.90;;;11.50;99.90;;;;;;4932671;29;20268;-63
2024/03/11 04:20:39;;;;;;;37.90;26.83;;;11.30;99.90;;;;;;4935739;29;20205;-62
2024/03/11 04:23:12;;;;;;;43.93;27.50;;;11.20;99.90;;;;;;4936470;29;20492;-63
2024/03/11 04:25:37;;;;;;;38.80;27.60;;;11.20;99.90;;;;;;4935661;29;20401;-62
2024/03/11 04:28:05;;;;;;;40.97;27.00;;;11.10;99.90;;;;;;4936231;29;20460;-63
2024/03/11 04:30:39;;;;;;;40.83;28.03;;;11.10;99.90;;;;;;4928200;29;20221;-62
2024/03/11 04:33:06;;;;;;;36.67;26.83;;;11.10;99.90;;;;;;4936437;29;20527;-63
2024/03/11 04:35:34;;;;;;;40.70;27.53;;;10.90;99.90;;;;;;4935350;29;20777;-62
2024/03/11 04:38:04;;;;;;;38.20;26.63;;;10.90;99.90;;;;;;4926420;29;20527;-63
2024/03/11 04:40:36;;;;;;;45.03;28.83;;;10.80;99.90;;;;;;4932157;29;20763;-62
2024/03/11 04:43:02;;;;;;;42.10;28.60;;;10.80;99.90;;;;;;4939563;29;20547;-63
2024/03/11 04:45:28;;;;;;;41.73;28.13;;;10.80;99.90;;;;;;4935775;29;20523;-62
2024/03/11 04:48:01;;;;;;;40.70;30.27;;;10.80;99.90;;;;;;4936001;29;20941;-63
2024/03/11 04:50:30;;;;;;;42.10;28.40;;;10.90;99.90;;;;;;4935069;29;20499;-62
2024/03/11 04:53:02;;;;;;;43.73;28.83;;;11.00;99.90;;;;;;4935621;29;20474;-63
2024/03/11 04:55:28;;;;;;;43.13;28.60;;;11.00;99.90;;;;;;4935089;29;20452;-62
2024/03/11 04:57:55;;;;;;;39.17;27.70;;;11.10;99.90;;;;;;4936131;29;20413;-62
2024/03/11 05:00:26;;;;;;;37.80;26.57;;;11.10;99.90;;;;;;4919130;29;20528;-62
2024/03/11 05:03:03;;;;;;;36.07;26.30;;;11.20;99.90;;;;;;4936289;29;20445;-62
2024/03/11 05:05:36;;;;;;;40.70;27.70;;;11.20;99.90;;;;;;4951745;29;20436;-62
2024/03/11 05:08:03;;;;;;;38.00;27.80;;;11.30;99.90;;;;;;4937747;29;20402;-63
2024/03/11 05:10:30;;;;;;;41.97;27.77;;;11.30;99.90;;;;;;4936622;29;20533;-62
2024/03/11 05:12:57;;;;;;;38.67;26.67;;;11.30;99.90;;;;;;4969557;28;20471;-63
2024/03/11 05:15:22;;;;;;;36.67;25.73;;;11.40;99.90;;;;;;4969756;28;20824;-62
2024/03/11 05:17:49;;;;;;;37.37;26.10;;;11.40;99.90;;;;;;4937965;29;20515;-63
2024/03/11 05:20:15;;;;;;;38.67;27.50;;;11.40;99.90;;;;;;4935135;29;20191;-62
2024/03/11 05:22:45;;;;;;;38.13;26.90;;;11.40;99.90;;;;;;4935033;29;20418;-62
2024/03/11 05:25:14;;;;;;;41.07;27.77;;;11.50;99.90;;;;;;4935518;29;20742;-63
2024/03/11 05:27:41;;;;;;;39.37;26.73;;;11.50;99.90;;;;;;4934301;29;20918;-62
2024/03/11 05:30:07;;;;;;;36.47;26.23;;;11.50;99.90;;;;;;4936188;29;20444;-62
2024/03/11 05:32:34;;;;;;;35.33;24.87;;;11.50;99.90;;;;;;4947614;29;20471;-62
2024/03/11 05:35:00;;;;;;;37.30;26.63;;;11.50;99.90;;;;;;4935110;29;20423;-63
2024/03/11 05:37:26;;;;;;;40.37;28.30;;;11.60;99.90;;;;;;4934492;29;20420;-62
2024/03/11 05:39:54;;;;;;;36.70;27.70;;;11.50;99.90;;;;;;4935418;29;20413;-63
2024/03/11 05:42:20;;;;;;;39.50;27.67;;;11.60;99.90;;;;;;4935219;29;20424;-63
2024/03/11 05:44:46;;;;;;;34.60;25.40;;;11.60;99.90;;;;;;4934423;29;20414;-62
2024/03/11 05:47:13;;;;;;;39.33;27.50;;;11.50;99.90;;;;;;4935099;29;20415;-63
2024/03/11 05:49:41;;;;;;;33.30;24.63;;;11.50;99.90;;;;;;4933853;29;20422;-62
2024/03/11 05:52:09;;;;;;;34.20;25.53;;;11.60;99.90;;;;;;4933858;29;20497;-62
2024/03/11 05:54:38;;;;;;;37.33;26.20;;;11.50;99.90;;;;;;4934164;29;20428;-63
2024/03/11 05:57:08;;;;;;;35.50;26.00;;;11.60;99.90;;;;;;4935080;29;20482;-63
2024/03/11 05:59:35;;;;;;;35.97;24.83;;;11.60;99.90;;;;;;4934561;29;20457;-62
2024/03/11 06:02:01;;;;;;;37.93;28.07;;;11.60;99.90;;;;;;4935536;29;20778;-62
2024/03/11 06:04:27;;;;;;;40.13;27.53;;;11.60;99.90;;;;;;4939249;29;20543;-62
2024/03/11 06:06:53;;;;;;;39.57;26.13;;;11.50;99.90;;;;;;4935048;29;20191;-62
2024/03/11 06:09:19;;;;;;;38.00;27.50;;;11.60;99.90;;;;;;4935150;29;20439;-62
2024/03/11 06:11:47;;;;;;;37.33;26.40;;;11.60;99.90;;;;;;4934464;29;20769;-62
2024/03/11 06:14:13;;;;;;;44.80;28.90;;;11.60;99.90;;;;;;4935016;29;20460;-62
2024/03/11 06:16:39;;;;;;;41.27;28.23;;;11.60;99.90;;;;;;4947904;28;20443;-62
2024/03/11 06:19:07;;;;;;;39.53;28.07;;;11.60;99.90;;;;;;4934446;29;20520;-63
2024/03/11 06:21:34;;;;;;;37.23;26.23;;;11.60;99.90;;;;;;4934639;29;20458;-62
2024/03/11 06:24:00;;;;;;;40.30;28.40;;;11.70;99.90;;;;;;4899914;29;21143;-62
2024/03/11 06:26:31;;;;;;;36.90;26.37;;;11.70;99.90;;;;;;4934805;29;20818;-63
2024/03/11 06:28:57;;;;;;;38.63;27.30;;;11.70;99.90;;;;;;4934818;29;20476;-62
2024/03/11 06:31:25;;;;;;;40.43;26.50;;;11.70;99.90;;;;;;4934828;29;20437;-62
2024/03/11 06:33:52;;;;;;;42.10;28.50;;;11.70;99.90;;;;;;4937905;29;20461;-62
2024/03/11 06:36:18;;;;;;;49.03;33.23;;;11.70;99.90;;;;;;4938394;29;20510;-62
2024/03/11 06:38:48;;;;;;;40.97;29.37;;;11.70;99.90;;;;;;4938069;29;20422;-62
2024/03/11 06:41:15;;;;;;;43.20;29.40;;;11.70;99.90;;;;;;4937845;29;20412;-62
2024/03/11 06:43:41;;;;;;;39.87;28.47;;;11.70;99.90;;;;;;4937769;29;20446;-62
2024/03/11 06:46:07;;;;;;;42.30;29.33;;;11.70;99.90;;;;;;4941102;29;20435;-62
2024/03/11 06:48:32;;;;;;;37.57;27.83;;;11.70;99.90;;;;;;4940433;29;20178;-61
2024/03/11 06:50:59;;;;;;;43.60;28.40;;;11.70;99.90;;;;;;4938334;29;20196;-63
2024/03/11 06:53:24;;;;;;;38.90;27.87;;;11.70;99.90;;;;;;4937735;29;20212;-64
2024/03/11 06:55:51;;;;;;;36.93;27.30;;;11.70;99.90;;;;;;4937303;29;20423;-63
2024/03/11 06:58:18;;;;;;;37.27;26.90;;;11.70;99.90;;;;;;4937961;29;20184;-63
2024/03/11 07:00:43;;;;;;;41.70;28.40;;;11.70;99.90;;;;;;4921984;29;20783;-63
2024/03/11 07:03:09;;;;;;;37.97;28.27;;;11.70;99.90;;;;;;4937631;29;20436;-63
2024/03/11 07:05:35;;;;;;;37.10;25.50;;;11.70;99.90;;;;;;4937577;29;20432;-62
2024/03/11 07:08:06;;;;;;;34.90;26.60;;;11.80;99.90;;;;;;4937138;29;20208;-60
2024/03/11 07:10:32;;;;;;;36.43;27.03;;;11.70;99.90;;;;;;4906106;29;20494;-62
2024/03/11 07:12:58;;;;;;;34.33;25.80;;;11.70;99.90;;;;;;4938021;29;20469;-62
2024/03/11 07:15:25;;;;;;;29.20;22.00;;;11.80;99.90;;;;;;4920489;29;20504;-62
2024/03/11 07:17:51;;;;;;;31.30;22.43;;;11.70;99.90;;;;;;4951307;29;20435;-62
2024/03/11 07:20:17;;;;;;;30.00;22.50;;;11.70;99.90;;;;;;4937484;29;20424;-63
2024/03/11 07:22:45;;;;;;;29.47;22.93;;;11.70;99.90;;;;;;4936605;29;20447;-62
2024/03/11 07:25:11;;;;;;;28.67;21.13;;;11.70;99.90;;;;;;4936294;29;20428;-62
2024/03/11 07:27:39;;;;;;;26.00;21.10;;;11.80;99.90;;;;;;4949858;29;20439;-62
2024/03/11 07:30:12;;;;;;;26.60;20.27;;;11.70;99.90;;;;;;4936079;29;20436;-62
2024/03/11 07:32:37;;;;;;;26.40;19.37;;;11.80;99.90;;;;;;4934749;29;20497;-62
2024/03/11 07:35:04;;;;;;;25.13;18.70;;;11.80;99.90;;;;;;4936973;29;20886;-62
2024/03/11 07:37:30;;;;;;;23.27;18.40;;;11.80;99.90;;;;;;4935658;29;20555;-62
2024/03/11 07:39:56;;;;;;;23.10;17.37;;;11.80;99.90;;;;;;4936157;29;20442;-62
2024/03/11 07:42:22;;;;;;;22.77;18.80;;;11.80;99.90;;;;;;4936568;29;20192;-62
2024/03/11 07:44:48;;;;;;;22.33;18.40;;;11.90;99.90;;;;;;4934550;29;20445;-62
2024/03/11 07:47:14;;;;;;;24.00;17.43;;;11.90;99.90;;;;;;4932873;29;20274;-62
2024/03/11 07:49:40;;;;;;;21.80;18.07;;;11.90;99.90;;;;;;4936539;29;21022;-62
2024/03/11 07:52:07;;;;;;;22.13;17.50;;;11.90;99.90;;;;;;4937165;29;20567;-62
2024/03/11 07:54:33;;;;;;;23.33;18.50;;;11.90;99.90;;;;;;4936284;29;20473;-61
2024/03/11 07:56:58;;;;;;;22.03;19.63;;;11.80;99.90;;;;;;4936925;29;20447;-62
2024/03/11 07:59:25;;;;;;;20.67;16.40;;;11.80;99.90;;;;;;4937355;29;20768;-61
2024/03/11 08:01:51;;;;;;;23.53;17.43;;;11.90;99.90;;;;;;4919009;29;20546;-62
2024/03/11 08:04:17;;;;;;;22.20;17.43;;;11.80;99.90;;;;;;4935815;29;20432;-62
2024/03/11 08:06:42;;;;;;;21.87;19.00;;;11.90;99.90;;;;;;4937011;29;20173;-62
2024/03/11 08:09:09;;;;;;;21.03;18.60;;;11.90;99.90;;;;;;4936262;29;20439;-62
2024/03/11 08:11:35;;;;;;;20.13;18.03;;;11.90;99.90;;;;;;4935861;29;20184;-62
2024/03/11 08:14:05;;;;;;;23.13;19.63;;;12.00;99.90;;;;;;4936915;29;20456;-62
2024/03/11 08:16:31;;;;;;;18.20;15.40;;;12.40;99.90;;;;;;4932711;29;20441;-62
2024/03/11 08:18:57;;;;;;;19.23;16.53;;;12.80;99.90;;;;;;4936544;29;20476;-62
2024/03/11 08:21:23;;;;;;;19.13;16.30;;;13.20;99.90;;;;;;4946987;29;20213;-62
2024/03/11 08:23:49;;;;;;;20.13;18.00;;;13.50;99.90;;;;;;4949972;29;20483;-62
2024/03/11 08:26:17;;;;;;;19.30;17.20;;;13.80;99.90;;;;;;4947913;29;20212;-62
2024/03/11 08:28:43;;;;;;;19.53;17.43;;;14.10;99.90;;;;;;4935615;29;20750;-62
2024/03/11 08:31:09;;;;;;;19.20;16.90;;;14.30;99.90;;;;;;4936168;29;20972;-62
2024/03/11 08:33:38;;;;;;;19.10;17.10;;;14.50;99.90;;;;;;4935914;29;20460;-62
2024/03/11 08:36:04;;;;;;;17.73;15.80;;;14.70;99.90;;;;;;4937314;29;20484;-62
2024/03/11 08:38:35;;;;;;;18.30;16.30;;;14.90;99.90;;;;;;4936633;29;20433;-62
2024/03/11 08:41:06;;;;;;;17.80;15.53;;;15.00;99.90;;;;;;4936260;29;20514;-62
2024/03/11 08:43:32;;;;;;;23.23;17.33;;;15.10;99.90;;;;;;4936527;29;20436;-62
2024/03/11 08:45:58;;;;;;;18.20;16.37;;;15.20;99.90;;;;;;4935548;29;20425;-62
2024/03/11 08:48:24;;;;;;;19.60;17.57;;;15.30;99.90;;;;;;4935620;29;20421;-62
2024/03/11 08:50:50;;;;;;;19.93;16.87;;;15.40;99.90;;;;;;4927252;29;20215;-60
2024/03/11 08:53:16;;;;;;;18.43;16.30;;;15.40;99.90;;;;;;4934557;29;20947;-60
2024/03/11 08:55:42;;;;;;;20.43;17.87;;;15.40;99.90;;;;;;4926357;29;20225;-60
2024/03/11 08:58:09;;;;;;;21.37;18.70;;;15.10;99.90;;;;;;4925602;29;20203;-63
2024/03/11 09:00:37;;;;;;;23.73;17.50;;;14.80;99.90;;;;;;4939039;29;20419;-59
2024/03/11 09:03:06;;;;;;;19.67;17.30;;;14.50;99.90;;;;;;4935838;29;20482;-60
2024/03/11 09:05:32;;;;;;;21.43;18.10;;;14.30;99.90;;;;;;4934963;29;20482;-60
2024/03/11 09:07:59;;;;;;;23.57;19.07;;;14.10;99.90;;;;;;4915710;29;20945;-60
2024/03/11 09:10:26;;;;;;;22.80;19.27;;;13.90;99.90;;;;;;4934985;29;20927;-60
2024/03/11 09:12:52;;;;;;;26.37;19.47;;;13.70;99.90;;;;;;4916819;29;20469;-60
2024/03/11 09:15:23;;;;;;;22.50;18.37;;;13.60;99.90;;;;;;4935462;29;20444;-60
2024/03/11 09:17:50;;;;;;;23.67;18.47;;;13.40;99.90;;;;;;4934747;29;20489;-60
2024/03/11 09:20:19;;;;;;;22.20;18.73;;;13.30;99.90;;;;;;4935619;29;20424;-60
2024/03/11 09:22:56;;;;;;;26.33;22.30;;;13.20;99.90;;;;;;4935172;29;20423;-60
2024/03/11 09:25:26;;;;;;;22.37;19.33;;;13.10;99.90;;;;;;4936080;29;20413;-60
2024/03/11 09:28:03;;;;;;;27.17;20.40;;;12.80;99.90;;;;;;4934886;29;20918;-60
2024/03/11 09:30:31;;;;;;;27.33;20.00;;;12.70;99.90;;;;;;4935720;29;20416;-60
2024/03/11 09:32:57;;;;;;;26.30;18.73;;;12.60;99.90;;;;;;4917902;29;20464;-60
2024/03/11 09:35:23;;;;;;;27.20;20.60;;;12.50;99.90;;;;;;4936164;29;20511;-60
2024/03/11 09:37:53;;;;;;;24.40;19.57;;;12.20;99.90;;;;;;4947865;29;20428;-60
2024/03/11 09:40:23;;;;;;;30.17;21.60;;;12.30;99.90;;;;;;4954970;29;20470;-60
2024/03/11 09:42:56;;;;;;;30.90;21.13;;;12.20;99.90;;;;;;4954180;29;20416;-60
2024/03/11 09:45:24;;;;;;;27.47;19.90;;;12.00;99.90;;;;;;4954657;29;20412;-60
2024/03/11 09:47:57;;;;;;;29.50;21.20;;;12.00;99.90;;;;;;4954278;29;20476;-60
2024/03/11 09:50:30;;;;;;;28.17;19.60;;;12.00;99.90;;;;;;4954897;29;20440;-60
2024/03/11 09:53:04;;;;;;;31.83;21.60;;;11.90;99.90;;;;;;4953995;29;20532;-60
2024/03/11 09:55:30;;;;;;;32.07;22.73;;;12.00;99.90;;;;;;4954590;29;20421;-60
2024/03/11 09:58:10;;;;;;;30.83;21.83;;;11.90;99.90;;;;;;4954013;29;20410;-59
2024/03/11 10:00:49;;;;;;;27.30;18.77;;;11.90;99.90;;;;;;4937395;29;20409;-60
2024/03/11 10:03:20;;;;;;;28.70;18.47;;;11.90;99.90;;;;;;4951058;29;20448;-60
2024/03/11 10:05:47;;;;;;;25.67;18.10;;;11.90;99.90;;;;;;4953858;28;20411;-60
2024/03/11 10:08:20;;;;;;;25.00;17.67;;;11.90;99.90;;;;;;4958034;29;20418;-60
2024/03/11 10:11:15;;;;;;;24.70;18.13;;;11.80;99.90;;;;;;4957866;29;20566;-60
2024/03/11 10:13:41;;;;;;;23.67;17.10;;;11.70;99.90;;;;;;4957750;29;20448;-61
2024/03/11 10:16:18;;;;;;;20.83;16.23;;;11.70;99.90;;;;;;4958249;29;20414;-60
2024/03/11 10:19:02;;;;;;;20.30;15.07;;;11.70;99.90;;;;;;4957761;29;20400;-60
2024/03/11 10:21:33;;;;;;;18.83;14.90;;;11.80;99.90;;;;;;4958394;29;20409;-60
2024/03/11 10:24:00;;;;;;;18.60;16.30;;;11.80;99.90;;;;;;4957607;29;20504;-60
2024/03/11 10:26:33;;;;;;;17.40;14.87;;;11.80;99.90;;;;;;4957865;29;20463;-60
2024/03/11 10:29:00;;;;;;;17.00;12.47;;;11.70;99.90;;;;;;4957403;29;20518;-60
2024/03/11 10:31:33;;;;;;;15.50;12.20;;;11.70;99.90;;;;;;4955528;29;20824;-60
2024/03/11 10:34:24;;;;;;;16.13;11.60;;;11.70;99.90;;;;;;4957301;29;20452;-60
2024/03/11 10:36:59;;;;;;;12.43;10.53;;;11.50;99.90;;;;;;4957422;29;20504;-60
2024/03/11 10:39:37;;;;;;;11.83;9.97;;;11.40;99.90;;;;;;4940837;29;20406;-60
2024/03/11 10:42:08;;;;;;;10.50;9.50;;;11.40;99.90;;;;;;4957320;29;20501;-60
2024/03/11 10:44:40;;;;;;;10.50;9.40;;;11.40;99.90;;;;;;4957863;29;20400;-60
2024/03/11 10:47:18;;;;;;;11.43;9.50;;;11.30;99.90;;;;;;4957195;29;20484;-60
2024/03/11 10:49:48;;;;;;;8.30;7.60;;;11.40;99.90;;;;;;4957185;29;20480;-61
2024/03/11 10:52:22;;;;;;;5.97;5.37;;;11.30;99.90;;;;;;4940453;29;20402;-60
2024/03/11 10:54:50;;;;;;;6.20;5.40;;;11.30;99.90;;;;;;4924209;29;20422;-60
2024/03/11 10:57:45;;;;;;;6.03;5.43;;;11.10;99.90;;;;;;4957845;29;20829;-60
2024/03/11 11:02:46;;;;;;;4.50;4.20;;;11.10;99.90;;;;;;4939137;29;20515;-61
2024/03/11 11:05:16;;;;;;;5.20;4.80;;;11.00;99.90;;;;;;4952024;29;20426;-60
2024/03/11 11:07:42;;;;;;;3.53;3.33;;;11.10;99.90;;;;;;4955339;29;20464;-60
2024/03/11 11:10:17;;;;;;;6.23;5.93;;;11.10;99.90;;;;;;4957080;29;20408;-60
2024/03/11 11:12:44;;;;;;;4.80;4.50;;;11.10;99.90;;;;;;4957251;29;20505;-60
2024/03/11 11:15:14;;;;;;;5.00;4.60;;;11.10;99.90;;;;;;4957045;29;20802;-60
2024/03/11 11:17:42;;;;;;;3.13;3.03;;;10.90;99.90;;;;;;4956722;28;20819;-60
2024/03/11 11:20:37;;;;;;;3.63;3.43;;;11.00;99.90;;;;;;4956529;29;20409;-60
2024/03/11 11:23:05;;;;;;;2.90;2.80;;;10.90;99.90;;;;;;4939457;29;20814;-60
2024/03/11 11:25:42;;;;;;;3.63;3.43;;;10.90;99.90;;;;;;4957001;29;20413;-60
2024/03/11 11:28:28;;;;;;;3.70;3.50;;;11.00;99.90;;;;;;4955963;29;20470;-59
2024/03/11 11:31:25;;;;;;;6.00;5.70;;;11.00;99.90;;;;;;4955116;29;20487;-63
2024/03/11 11:34:01;;;;;;;3.70;3.50;;;11.00;99.90;;;;;;4955749;29;20204;-62
2024/03/11 11:36:32;;;;;;;3.87;3.67;;;10.90;99.90;;;;;;4954871;29;20988;-60
2024/03/11 11:39:17;;;;;;;3.30;3.10;;;10.90;99.90;;;;;;4944850;29;20418;-61
2024/03/11 11:41:45;;;;;;;4.90;4.60;;;11.20;99.90;;;;;;4937586;29;20465;-61
2024/03/11 11:44:31;;;;;;;3.50;3.30;;;11.60;99.90;;;;;;4936234;29;20428;-61
2024/03/11 11:47:05;;;;;;;4.07;3.97;;;12.00;99.90;;;;;;4917436;29;20824;-61
2024/03/11 11:49:34;;;;;;;4.07;3.90;;;12.40;99.90;;;;;;4944145;29;20434;-61
2024/03/11 11:52:04;;;;;;;3.87;3.77;;;12.70;99.90;;;;;;4935950;29;20412;-61
2024/03/11 11:54:34;;;;;;;3.60;3.40;;;12.80;99.90;;;;;;4943887;29;20784;-61
2024/03/11 11:57:06;;;;;;;1.77;1.67;;;12.90;99.90;;;;;;4927585;29;20901;-61
2024/03/11 11:59:40;;;;;;;2.50;2.40;;;12.90;99.90;;;;;;4927013;29;20434;-61
2024/03/11 12:02:22;;;;;;;3.20;3.10;;;13.00;99.90;;;;;;4936098;29;20421;-61
2024/03/11 12:04:55;;;;;;;2.20;2.10;;;13.00;99.90;;;;;;4936333;29;20401;-61
2024/03/11 12:07:23;;;;;;;2.30;2.20;;;13.20;99.90;;;;;;4936836;29;20504;-61
2024/03/11 12:09:50;;;;;;;2.40;2.30;;;13.40;99.90;;;;;;4918922;29;20424;-61
2024/03/11 12:12:33;;;;;;;2.60;2.50;;;13.50;99.90;;;;;;4936337;29;20852;-61
2024/03/11 12:15:04;;;;;;;4.13;3.83;;;13.60;99.90;;;;;;4935775;29;20418;-61
2024/03/11 12:17:30;;;;;;;3.33;3.13;;;13.80;99.90;;;;;;4936673;29;20405;-61
2024/03/11 12:22:56;;;;;;;2.80;2.63;;;13.90;99.90;;;;;;4935472;29;20405;-61
2024/03/11 12:25:22;;;;;;;2.53;2.43;;;13.80;99.90;;;;;;4936520;29;20432;-61
2024/03/11 12:27:53;;;;;;;2.57;2.50;;;13.80;99.90;;;;;;4935997;29;20422;-60
2024/03/11 12:30:19;;;;;;;3.07;2.70;;;13.60;99.90;;;;;;4919313;29;20449;-61
2024/03/11 12:32:56;;;;;;;2.33;2.30;;;13.40;99.90;;;;;;4955418;29;20460;-61
2024/03/11 12:35:25;;;;;;;2.63;2.53;;;13.60;99.90;;;;;;4956001;29;20416;-61
2024/03/11 12:37:51;;;;;;;2.60;2.50;;;13.50;99.90;;;;;;4955116;29;20428;-61
2024/03/11 12:40:20;;;;;;;2.37;2.30;;;13.50;99.90;;;;;;4955331;29;20900;-61
2024/03/11 12:42:48;;;;;;;2.03;2.03;;;13.40;99.90;;;;;;4955025;29;20548;-61